Time;durP1;ratioP1;P1;durP2;ratioP2;P2;SDS_P1;SDS_P2;PMS_P1;PMS_P2;Temp;Humidity;BMP_temperature;BMP_pressure;BME280_temperature;BME280_humidity;BME280_pressure;Samples;Min_cycle;Max_cycle;Signal;HPM_P1;HPM_P2
2022/11/06 00:00:17;;;;;;;47.83;18.08;;;;;;;2.96;100.00;96279.34;1028435;28;20449;-70
2022/11/06 00:00:47;;;;;;;46.45;18.02;;;;;;;2.98;100.00;96278.13;1026043;28;20030;-72
2022/11/06 00:01:18;;;;;;;46.20;18.25;;;;;;;2.97;100.00;96280.94;1021912;29;20030;-70
2022/11/06 00:01:48;;;;;;;48.55;17.92;;;;;;;2.95;100.00;96273.38;1021974;28;20023;-72
2022/11/06 00:02:19;;;;;;;47.28;18.38;;;;;;;2.99;100.00;96279.75;1025393;28;20037;-70
2022/11/06 00:02:49;;;;;;;40.28;16.90;;;;;;;2.99;100.00;96284.13;1025801;28;20121;-71
2022/11/06 00:03:20;;;;;;;41.13;18.35;;;;;;;2.99;100.00;96273.75;1017863;29;20020;-71
2022/11/06 00:03:51;;;;;;;54.20;18.92;;;;;;;3.00;100.00;96281.31;1017562;29;20066;-70
2022/11/06 00:04:22;;;;;;;49.90;18.30;;;;;;;3.02;100.00;96281.94;1025885;28;20400;-70
2022/11/06 00:04:52;;;;;;;40.15;17.95;;;;;;;3.09;100.00;96281.13;1021949;29;20255;-72
2022/11/06 00:07:03;;;;;;;40.45;16.90;;;;;;;3.13;100.00;96285.69;1025817;28;21079;-71
2022/11/06 00:07:34;;;;;;;43.00;17.17;;;;;;;3.12;100.00;96289.31;1025889;28;20256;-72
2022/11/06 00:08:07;;;;;;;45.40;17.95;;;;;;;3.18;100.00;96293.66;1022019;29;20031;-71
2022/11/06 00:08:39;;;;;;;54.95;19.45;;;;;;;3.13;100.00;96290.09;1029879;28;20763;-70
2022/11/06 00:09:11;;;;;;;46.20;17.83;;;;;;;3.11;100.00;96292.06;1030006;28;20057;-71
2022/11/06 00:09:42;;;;;;;49.22;18.60;;;;;;;3.09;100.00;96291.50;1033020;28;20265;-70
2022/11/06 00:10:15;;;;;;;43.40;17.13;;;;;;;3.07;100.00;96287.28;1033902;28;20284;-70
2022/11/06 00:10:45;;;;;;;40.75;17.75;;;;;;;2.96;100.00;96274.94;1031109;28;20733;-69
2022/11/06 00:11:18;;;;;;;40.60;17.48;;;;;;;3.03;100.00;96287.91;1026080;28;20274;-72
2022/11/06 00:11:49;;;;;;;41.50;16.92;;;;;;;2.93;100.00;96280.53;1026137;28;20153;-71
2022/11/06 00:12:20;;;;;;;46.75;17.02;;;;;;;2.99;100.00;96292.69;1028849;28;20858;-72
2022/11/06 00:12:50;;;;;;;50.05;17.92;;;;;;;2.91;100.00;96277.34;1029543;28;20037;-70
2022/11/06 00:13:21;;;;;;;46.75;17.75;;;;;;;2.95;100.00;96288.91;1034558;28;20181;-72
2022/11/06 00:13:51;;;;;;;53.80;18.02;;;;;;;2.94;100.00;96289.09;1036636;28;20018;-71
2022/11/06 00:14:21;;;;;;;54.63;18.10;;;;;;;2.91;100.00;96287.69;1031065;28;20026;-71
2022/11/06 00:14:52;;;;;;;47.05;17.30;;;;;;;2.88;100.00;96289.91;1025927;28;20034;-70
2022/11/06 00:15:22;;;;;;;41.30;16.77;;;;;;;2.85;100.00;96288.53;1033739;28;20022;-71
2022/11/06 00:15:53;;;;;;;60.35;18.75;;;;;;;2.81;100.00;96282.91;1027972;28;20548;-71
2022/11/06 00:16:23;;;;;;;49.30;17.95;;;;;;;2.80;100.00;96288.31;1026041;28;20023;-71
2022/11/06 00:16:54;;;;;;;42.22;17.33;;;;;;;2.75;100.00;96278.56;1018008;29;20083;-71
2022/11/06 00:17:24;;;;;;;42.20;16.73;;;;;;;2.79;100.00;96294.50;1025705;28;20033;-72
2022/11/06 00:17:55;;;;;;;37.53;15.60;;;;;;;2.78;100.00;96290.28;1026057;28;20034;-70
2022/11/06 00:18:26;;;;;;;40.92;16.23;;;;;;;2.71;100.00;96287.69;1030104;28;20021;-71
2022/11/06 00:18:59;;;;;;;35.90;14.80;;;;;;;2.70;100.00;96288.72;1033964;28;20034;-70
2022/11/06 00:19:29;;;;;;;36.95;14.25;;;;;;;2.69;100.00;96288.91;1024604;28;20332;-69
2022/11/06 00:20:00;;;;;;;43.63;17.27;;;;;;;2.66;100.00;96287.50;1017918;29;20323;-72
2022/11/06 00:20:30;;;;;;;52.10;18.77;;;;;;;2.69;100.00;96288.91;1023245;28;20039;-70
2022/11/06 00:21:08;;;;;;;43.90;16.80;;;;;;;2.60;100.00;96276.16;1030040;28;20030;-71
2022/11/06 00:21:39;;;;;;;40.17;16.17;;;;;;;2.62;100.00;96282.94;1030996;28;20018;-70
2022/11/06 00:22:09;;;;;;;41.63;16.13;;;;;;;2.58;100.00;96278.16;1029056;28;20289;-71
2022/11/06 00:22:40;;;;;;;40.78;17.00;;;;;;;2.60;100.00;96280.53;1021343;29;20397;-70
2022/11/06 00:23:10;;;;;;;44.13;15.57;;;;;;;2.58;100.00;96279.94;1026499;28;20026;-71
2022/11/06 00:23:41;;;;;;;45.30;17.65;;;;;;;2.57;100.00;96281.72;1025926;28;20524;-71
2022/11/06 00:24:12;;;;;;;48.05;18.23;;;;;;;2.52;100.00;96278.94;1017849;29;20024;-71
2022/11/06 00:24:43;;;;;;;44.28;17.23;;;;;;;2.56;100.00;96279.34;1022070;29;20023;-72
2022/11/06 00:25:13;;;;;;;40.72;16.80;;;;;;;2.49;100.00;96266.38;1023081;28;20274;-69
2022/11/06 00:25:44;;;;;;;47.70;17.73;;;;;;;2.56;100.00;96284.53;1023955;28;20062;-70
2022/11/06 00:26:17;;;;;;;42.58;17.52;;;;;;;2.55;100.00;96277.75;1018111;29;20758;-71
2022/11/06 00:26:47;;;;;;;46.88;17.23;;;;;;;2.47;100.00;96270.97;1021716;29;20063;-71
2022/11/06 00:27:18;;;;;;;46.70;17.75;;;;;;;2.54;100.00;96282.13;1020861;28;20275;-70
2022/11/06 00:27:48;;;;;;;46.13;18.90;;;;;;;2.54;100.00;96279.53;1033863;28;20026;-70
2022/11/06 00:28:19;;;;;;;47.75;18.58;;;;;;;2.45;100.00;96270.38;1028164;28;20583;-69
2022/11/06 00:28:49;;;;;;;45.72;22.20;;;;;;;2.52;100.00;96276.34;1024417;28;20232;-70
2022/11/06 00:29:20;;;;;;;46.55;19.10;;;;;;;2.51;100.00;96282.50;1021800;29;20074;-71
2022/11/06 00:29:50;;;;;;;46.03;19.13;;;;;;;2.52;100.00;96283.34;1021213;29;20034;-69
2022/11/06 00:30:21;;;;;;;49.10;22.50;;;;;;;2.52;100.00;96280.75;1028338;28;20088;-70
2022/11/06 00:31:00;;;;;;;44.08;20.17;;;;;;;2.46;100.00;96271.16;1025487;28;20034;-72
2022/11/06 00:31:32;;;;;;;42.90;19.48;;;;;;;2.51;100.00;96285.09;1029366;28;20018;-70
2022/11/06 00:32:03;;;;;;;42.63;19.15;;;;;;;2.50;100.00;96280.94;1029552;28;20277;-70
2022/11/06 00:32:33;;;;;;;50.47;21.67;;;;;;;2.50;100.00;96286.09;1030533;28;20278;-70
2022/11/06 00:33:04;;;;;;;53.55;22.88;;;;;;;2.49;100.00;96284.53;1037144;28;20016;-70
2022/11/06 00:33:37;;;;;;;52.33;21.45;;;;;;;2.48;100.00;96284.69;1031152;28;20092;-70
2022/11/06 00:34:08;;;;;;;52.67;21.35;;;;;;;2.47;100.00;96281.31;1037282;28;20053;-72
2022/11/06 00:34:38;;;;;;;49.63;20.83;;;;;;;2.45;100.00;96280.72;1037710;28;20272;-69
2022/11/06 00:35:09;;;;;;;48.22;20.05;;;;;;;2.45;100.00;96282.50;1031767;28;20030;-70
2022/11/06 00:35:39;;;;;;;48.60;21.20;;;;;;;2.38;100.00;96266.97;1038090;28;20037;-69
2022/11/06 00:36:12;;;;;;;45.05;19.90;;;;;;;2.39;100.00;96268.56;1031301;28;20500;-71
2022/11/06 00:36:43;;;;;;;48.20;20.20;;;;;;;2.45;100.00;96272.13;1030046;28;20065;-70
2022/11/06 00:37:13;;;;;;;48.55;18.95;;;;;;;2.35;100.00;96263.00;1032486;28;20292;-70
2022/11/06 00:37:44;;;;;;;44.70;18.52;;;;;;;2.43;100.00;96280.13;1017958;29;20816;-70
2022/11/06 00:38:14;;;;;;;49.78;19.77;;;;;;;2.44;100.00;96281.72;1021377;28;20098;-69
2022/11/06 00:38:45;;;;;;;50.13;18.67;;;;;;;2.42;100.00;96275.94;1021661;29;20422;-71
2022/11/06 00:39:15;;;;;;;55.13;19.08;;;;;;;2.39;100.00;96268.56;1022417;28;20069;-69
2022/11/06 00:39:45;;;;;;;47.97;17.80;;;;;;;2.35;100.00;96268.16;1031499;28;20649;-71
2022/11/06 00:40:16;;;;;;;40.63;15.98;;;;;;;2.46;100.00;96284.13;1024262;28;20444;-71
2022/11/06 00:40:46;;;;;;;43.40;17.83;;;;;;;2.44;100.00;96283.50;1017668;29;20032;-72
2022/11/06 00:41:17;;;;;;;41.22;16.40;;;;;;;2.44;100.00;96279.13;1014385;29;20115;-70
2022/11/06 00:41:47;;;;;;;43.78;17.75;;;;;;;2.42;100.00;96283.72;1017882;28;20039;-71
2022/11/06 00:42:18;;;;;;;39.95;17.02;;;;;;;2.32;100.00;96273.75;1025498;28;20033;-71
2022/11/06 00:42:52;;;;;;;39.03;17.10;;;;;;;2.38;100.00;96276.53;1022608;28;20074;-70
2022/11/06 00:43:23;;;;;;;44.08;17.30;;;;;;;2.39;100.00;96278.94;1023001;28;20036;-69
2022/11/06 00:43:58;;;;;;;45.95;17.70;;;;;;;2.32;100.00;96267.78;1019016;29;20298;-71
2022/11/06 00:44:28;;;;;;;39.80;15.98;;;;;;;2.28;100.00;96262.19;1030720;28;20610;-71
2022/11/06 00:44:59;;;;;;;44.92;16.60;;;;;;;2.36;100.00;96289.69;1030731;28;20278;-70
2022/11/06 00:45:29;;;;;;;36.38;16.65;;;;;;;2.34;100.00;96276.13;1033810;28;20088;-69
2022/11/06 00:46:07;;;;;;;40.92;16.85;;;;;;;2.32;100.00;96285.91;1024732;28;20031;-72
2022/11/06 00:46:38;;;;;;;43.17;16.02;;;;;;;2.23;100.00;96271.53;1027953;28;20117;-69
2022/11/06 00:47:08;;;;;;;41.72;16.90;;;;;;;2.28;100.00;96277.72;1020075;28;20300;-71
2022/11/06 00:47:39;;;;;;;35.42;15.20;;;;;;;2.28;100.00;96282.91;1026402;28;20062;-69
2022/11/06 00:48:09;;;;;;;38.80;14.90;;;;;;;2.27;100.00;96277.91;1032611;28;20038;-70
2022/11/06 00:48:40;;;;;;;37.10;16.02;;;;;;;2.23;100.00;96277.50;1025636;28;20030;-72
2022/11/06 00:49:10;;;;;;;42.00;16.55;;;;;;;2.22;100.00;96272.53;1029730;28;20061;-70
2022/11/06 00:49:41;;;;;;;40.75;15.25;;;;;;;2.17;100.00;96272.31;1021460;29;20139;-70
2022/11/06 00:50:11;;;;;;;33.40;14.85;;;;;;;2.16;100.00;96274.09;1021363;29;20129;-71
2022/11/06 00:50:42;;;;;;;32.80;15.13;;;;;;;2.16;100.00;96278.50;1029923;28;20037;-69
2022/11/06 00:51:14;;;;;;;29.70;13.70;;;;;;;2.13;100.00;96282.25;1031454;28;20034;-71
2022/11/06 00:51:44;;;;;;;34.30;15.57;;;;;;;2.04;100.00;96258.34;1032000;28;20026;-71
2022/11/06 00:52:18;;;;;;;30.90;13.68;;;;;;;2.12;100.00;96278.09;1033129;28;20822;-71
2022/11/06 00:52:48;;;;;;;36.20;16.00;;;;;;;2.05;100.00;96264.34;1027620;28;20124;-72
2022/11/06 00:53:18;;;;;;;38.35;15.57;;;;;;;2.10;100.00;96269.72;1024222;28;20726;-70
2022/11/06 00:53:53;;;;;;;42.22;15.45;;;;;;;2.08;100.00;96274.31;1025963;28;20034;-70
2022/11/06 00:54:23;;;;;;;34.13;15.63;;;;;;;2.07;100.00;96270.09;1029619;28;20606;-70
2022/11/06 00:54:54;;;;;;;40.22;16.60;;;;;;;2.05;100.00;96275.47;1029926;28;20285;-70
2022/11/06 00:55:24;;;;;;;33.75;14.52;;;;;;;2.04;100.00;96276.44;1026775;28;20432;-71
2022/11/06 00:55:54;;;;;;;39.08;14.70;;;;;;;2.03;100.00;96274.88;1029833;28;20132;-71
2022/11/06 00:56:25;;;;;;;29.80;14.30;;;;;;;2.02;100.00;96267.31;1029857;28;20036;-70
2022/11/06 00:56:56;;;;;;;33.33;14.38;;;;;;;1.95;100.00;96261.31;1029843;28;20084;-71
2022/11/06 00:57:26;;;;;;;40.63;16.45;;;;;;;2.02;100.00;96273.28;1037920;28;20041;-70
2022/11/06 00:57:57;;;;;;;33.15;15.30;;;;;;;1.99;100.00;96271.09;1025919;28;20038;-72
2022/11/06 00:58:27;;;;;;;35.00;16.25;;;;;;;2.01;100.00;96279.47;1021846;28;20031;-71
2022/11/06 00:58:58;;;;;;;43.28;15.70;;;;;;;2.01;100.00;96281.22;1030128;28;20305;-70
2022/11/06 00:59:29;;;;;;;32.00;14.48;;;;;;;1.99;100.00;96281.44;1025323;28;20037;-69
2022/11/06 00:59:59;;;;;;;37.25;15.00;;;;;;;1.94;100.00;96273.44;1025537;28;20278;-69
2022/11/06 01:00:30;;;;;;;34.13;15.40;;;;;;;1.97;100.00;96280.81;1022007;29;20039;-68
2022/11/06 01:01:14;;;;;;;35.13;15.25;;;;;;;1.96;100.00;96279.22;1022297;28;20904;-70
2022/11/06 01:01:45;;;;;;;32.55;14.05;;;;;;;1.96;100.00;96279.22;1037061;28;20036;-70
2022/11/06 01:02:19;;;;;;;34.25;14.48;;;;;;;1.94;100.00;96278.63;1033440;28;20461;-71
2022/11/06 01:02:49;;;;;;;37.53;15.93;;;;;;;1.91;100.00;96271.25;1033747;28;20034;-71
2022/11/06 01:03:20;;;;;;;40.53;15.80;;;;;;;1.92;100.00;96272.06;1041980;28;20275;-69
2022/11/06 01:04:01;;;;;;;35.25;15.18;;;;;;;1.81;100.00;96260.47;1037666;28;20040;-71
2022/11/06 01:04:37;;;;;;;38.13;16.15;;;;;;;1.82;100.00;96262.88;1033967;28;20101;-70
2022/11/06 01:05:08;;;;;;;39.22;15.32;;;;;;;1.81;100.00;96265.63;1029664;28;20281;-70
2022/11/06 01:05:38;;;;;;;34.75;15.13;;;;;;;1.82;100.00;96267.25;1021857;29;20275;-70
2022/11/06 01:06:17;;;;;;;40.42;17.50;;;;;;;1.79;100.00;96267.63;1027338;28;20038;-70
2022/11/06 01:06:49;;;;;;;32.80;14.93;;;;;;;1.80;100.00;96264.06;1023651;28;20031;-72
2022/11/06 01:07:19;;;;;;;37.65;15.23;;;;;;;1.70;100.00;96253.28;1027174;28;20742;-68
2022/11/06 01:07:50;;;;;;;37.42;14.93;;;;;;;1.75;100.00;96266.44;1038337;28;20307;-69
2022/11/06 01:08:20;;;;;;;33.63;14.45;;;;;;;1.77;100.00;96272.19;1030437;28;20400;-71
2022/11/06 01:08:51;;;;;;;36.67;15.30;;;;;;;1.72;100.00;96261.66;1028925;28;20068;-69
2022/11/06 01:09:24;;;;;;;34.85;14.90;;;;;;;1.76;100.00;96268.81;1033890;28;20234;-70
2022/11/06 01:09:54;;;;;;;35.60;15.40;;;;;;;1.76;100.00;96268.03;1026124;28;20030;-71
2022/11/06 01:10:25;;;;;;;34.95;15.48;;;;;;;1.73;100.00;96274.38;1033608;28;20296;-70
2022/11/06 01:10:55;;;;;;;37.55;14.65;;;;;;;1.73;100.00;96268.41;1033452;28;20468;-71
2022/11/06 01:11:36;;;;;;;36.08;16.08;;;;;;;1.70;100.00;96271.38;1033761;28;20117;-70
2022/11/06 01:12:07;;;;;;;41.88;15.80;;;;;;;1.65;100.00;96262.41;1029499;28;20106;-71
2022/11/06 01:12:37;;;;;;;32.28;14.43;;;;;;;1.68;100.00;96261.22;1025315;28;20289;-71
2022/11/06 01:13:08;;;;;;;34.20;15.30;;;;;;;1.67;100.00;96264.00;1029690;28;20787;-70
2022/11/06 01:13:38;;;;;;;30.45;14.77;;;;;;;1.65;100.00;96265.00;1033773;28;20045;-71
2022/11/06 01:14:10;;;;;;;28.08;14.60;;;;;;;1.67;100.00;96269.16;1029602;28;20552;-71
2022/11/06 01:14:41;;;;;;;30.00;15.15;;;;;;;1.16;100.00;96188.41;1030399;28;20121;-72
2022/11/06 01:15:11;;;;;;;34.20;15.30;;;;;;;1.61;100.00;96256.03;1033642;28;20466;-68
2022/11/06 01:15:42;;;;;;;38.28;17.02;;;;;;;1.72;100.00;96264.22;1037592;28;20029;-71
2022/11/06 01:16:14;;;;;;;43.75;16.52;;;;;;;1.65;100.00;96257.25;1029788;28;20628;-71
2022/11/06 01:16:44;;;;;;;39.80;16.58;;;;;;;1.71;100.00;96262.63;1033668;28;20077;-71
2022/11/06 01:17:15;;;;;;;40.90;16.27;;;;;;;1.63;100.00;96255.81;1026081;28;20278;-71
2022/11/06 01:17:45;;;;;;;31.25;15.23;;;;;;;1.69;100.00;96262.03;1029698;28;20022;-71
2022/11/06 01:18:16;;;;;;;31.83;13.90;;;;;;;1.61;100.00;96260.38;1029806;28;20030;-70
2022/11/06 01:18:46;;;;;;;34.10;14.80;;;;;;;1.63;100.00;96261.78;1025883;28;20026;-70
2022/11/06 01:19:17;;;;;;;31.65;14.23;;;;;;;1.67;100.00;96274.34;1022107;28;20035;-71
2022/11/06 01:19:48;;;;;;;37.47;15.43;;;;;;;1.65;100.00;96271.97;1026157;28;20121;-69
2022/11/06 01:20:18;;;;;;;35.33;14.93;;;;;;;1.65;100.00;96269.38;1025440;28;20771;-72
2022/11/06 01:20:49;;;;;;;31.23;14.98;;;;;;;1.60;100.00;96269.16;1029762;28;20022;-71
2022/11/06 01:21:21;;;;;;;34.03;14.48;;;;;;;1.54;100.00;96260.38;1030067;28;20052;-71
2022/11/06 01:21:52;;;;;;;39.35;15.25;;;;;;;1.56;100.00;96271.31;1029737;28;20034;-71
2022/11/06 01:22:25;;;;;;;29.52;14.13;;;;;;;1.60;100.00;96271.72;1029008;28;20367;-71
2022/11/06 01:22:55;;;;;;;45.42;16.50;;;;;;;1.59;100.00;96273.53;1028767;28;20728;-70
2022/11/06 01:23:26;;;;;;;40.35;15.35;;;;;;;1.60;100.00;96275.13;1029238;28;20103;-68
2022/11/06 01:24:01;;;;;;;32.65;14.65;;;;;;;1.55;100.00;96271.53;1034364;28;20034;-70
2022/11/06 01:24:31;;;;;;;36.65;15.80;;;;;;;1.62;100.00;96277.53;1026459;28;20030;-71
2022/11/06 01:25:02;;;;;;;40.45;16.55;;;;;;;1.53;100.00;96260.56;1024975;28;20270;-72
2022/11/06 01:25:33;;;;;;;36.85;14.77;;;;;;;1.57;100.00;96267.72;1022331;28;20031;-69
2022/11/06 01:26:07;;;;;;;40.05;15.32;;;;;;;1.61;100.00;96270.72;1026116;28;20085;-70
2022/11/06 01:26:38;;;;;;;31.13;15.00;;;;;;;1.53;100.00;96261.34;1026732;28;20644;-69
2022/11/06 01:27:08;;;;;;;40.00;14.77;;;;;;;1.55;100.00;96263.75;1023319;28;20273;-72
2022/11/06 01:27:39;;;;;;;27.92;13.80;;;;;;;1.61;100.00;96265.56;1034770;28;20025;-70
2022/11/06 01:28:09;;;;;;;36.95;15.30;;;;;;;1.60;100.00;96272.53;1030800;28;20073;-69
2022/11/06 01:28:40;;;;;;;51.72;16.58;;;;;;;1.55;100.00;96256.00;1033179;28;20042;-71
2022/11/06 01:29:12;;;;;;;45.38;16.48;;;;;;;1.60;100.00;96259.59;1034802;28;20088;-71
2022/11/06 01:29:42;;;;;;;42.54;16.70;;;;;;;1.55;100.00;96253.41;1026620;28;20035;-71
2022/11/06 01:30:13;;;;;;;41.72;16.65;;;;;;;1.59;100.00;96255.41;1022817;29;20051;-70
2022/11/06 01:30:43;;;;;;;46.05;17.17;;;;;;;1.73;100.00;96266.59;1030395;28;20026;-68
2022/11/06 01:31:17;;;;;;;39.97;17.08;;;;;;;1.82;100.00;96262.06;1022637;29;20910;-71
2022/11/06 01:31:49;;;;;;;49.75;18.42;;;;;;;1.85;100.00;96248.75;1026506;28;20027;-70
2022/11/06 01:32:25;;;;;;;41.85;17.33;;;;;;;1.99;100.00;96262.53;1033169;28;20352;-70
2022/11/06 01:32:55;;;;;;;40.50;17.55;;;;;;;1.95;100.00;96259.53;1031918;28;20272;-70
2022/11/06 01:33:26;;;;;;;46.50;18.13;;;;;;;1.95;100.00;96266.50;1037922;28;20267;-69
2022/11/06 01:33:57;;;;;;;39.80;17.45;;;;;;;1.85;100.00;96251.34;1036128;28;20025;-70
2022/11/06 01:34:27;;;;;;;38.85;16.58;;;;;;;1.93;100.00;96264.09;1034676;28;20029;-70
2022/11/06 01:34:58;;;;;;;44.45;17.38;;;;;;;1.85;100.00;96241.78;1034679;28;20401;-69
2022/11/06 01:35:28;;;;;;;67.35;19.60;;;;;;;1.93;100.00;96264.09;1034758;28;20072;-71
2022/11/06 01:35:59;;;;;;;55.42;17.63;;;;;;;1.82;100.00;96246.56;1026653;28;20629;-70
2022/11/06 01:36:29;;;;;;;36.40;15.73;;;;;;;1.85;100.00;96256.50;1029110;28;20034;-70
2022/11/06 01:36:59;;;;;;;38.42;15.60;;;;;;;1.84;100.00;96260.88;1030650;28;20424;-71
2022/11/06 01:37:30;;;;;;;40.67;16.42;;;;;;;1.84;100.00;96257.47;1026720;28;20030;-69
2022/11/06 01:38:00;;;;;;;42.65;16.88;;;;;;;1.61;100.00;96230.19;1018730;29;20031;-71
2022/11/06 01:38:31;;;;;;;44.38;16.80;;;;;;;1.79;100.00;96262.47;1022946;28;20035;-71
2022/11/06 01:39:04;;;;;;;51.20;17.98;;;;;;;1.73;100.00;96252.88;1026752;28;20038;-70
2022/11/06 01:39:34;;;;;;;37.40;15.57;;;;;;;1.77;100.00;96265.22;1034851;28;20041;-69
2022/11/06 01:40:05;;;;;;;43.47;17.10;;;;;;;1.75;100.00;96263.84;1026748;28;20262;-70
2022/11/06 01:40:40;;;;;;;37.47;15.95;;;;;;;1.74;100.00;96260.44;1018932;29;20031;-71
2022/11/06 01:41:12;;;;;;;38.70;15.48;;;;;;;1.71;100.00;96260.84;1022732;28;20035;-70
2022/11/06 01:41:45;;;;;;;36.72;14.88;;;;;;;1.64;100.00;96255.66;1031097;28;20567;-71
2022/11/06 01:42:18;;;;;;;29.27;13.48;;;;;;;1.71;100.00;96258.25;1026313;28;20357;-70
2022/11/06 01:42:49;;;;;;;38.08;15.70;;;;;;;1.77;100.00;96261.84;1022506;29;20832;-71
2022/11/06 01:43:22;;;;;;;40.58;16.15;;;;;;;1.80;100.00;96258.88;1023236;28;20278;-69
2022/11/06 01:43:58;;;;;;;44.38;17.55;;;;;;;1.86;100.00;96263.28;1023724;28;20027;-71
2022/11/06 01:44:34;;;;;;;39.65;15.77;;;;;;;1.92;100.00;96256.53;1023970;28;20275;-70
2022/11/06 01:45:26;;;;;;;45.28;16.92;;;;;;;2.01;100.00;96261.34;1029802;28;20277;-69
2022/11/06 01:45:56;;;;;;;35.25;15.98;;;;;;;1.99;100.00;96257.34;1022788;28;20835;-69
2022/11/06 01:46:29;;;;;;;48.22;18.33;;;;;;;1.91;100.00;96250.53;1023065;28;20273;-70
2022/11/06 01:47:01;;;;;;;43.83;17.77;;;;;;;2.00;100.00;96251.97;1026489;28;20886;-70
2022/11/06 01:47:32;;;;;;;43.58;15.48;;;;;;;2.03;100.00;96254.16;1022585;29;20798;-71
2022/11/06 01:48:04;;;;;;;40.53;17.67;;;;;;;2.04;100.00;96247.97;1034505;28;20291;-70
2022/11/06 01:48:34;;;;;;;43.40;16.60;;;;;;;2.03;100.00;96249.00;1030597;28;20403;-71
2022/11/06 01:49:13;;;;;;;42.05;18.13;;;;;;;2.06;100.00;96242.63;1026642;28;20265;-69
2022/11/06 01:49:43;;;;;;;37.60;17.13;;;;;;;2.09;100.00;96247.41;1026287;28;20039;-70
2022/11/06 01:50:13;;;;;;;38.60;17.02;;;;;;;2.15;100.00;96245.81;1022559;29;20290;-70
2022/11/06 01:50:46;;;;;;;43.65;17.60;;;;;;;2.14;100.00;96250.19;1022556;29;20041;-70
2022/11/06 01:51:17;;;;;;;42.35;17.13;;;;;;;2.09;100.00;96240.44;1030569;28;20090;-71
2022/11/06 01:51:52;;;;;;;41.08;16.95;;;;;;;2.10;100.00;96229.09;1022250;29;20286;-71
2022/11/06 01:52:23;;;;;;;38.70;16.88;;;;;;;2.13;100.00;96248.59;1021940;29;20121;-71
2022/11/06 01:52:53;;;;;;;45.17;18.02;;;;;;;2.05;100.00;96233.28;1026647;28;20775;-70
2022/11/06 01:53:24;;;;;;;38.67;15.95;;;;;;;2.09;100.00;96242.25;1026435;28;20041;-72
2022/11/06 01:53:54;;;;;;;31.70;14.85;;;;;;;2.01;100.00;96232.06;1026461;28;20030;-71
2022/11/06 01:54:25;;;;;;;38.83;15.23;;;;;;;2.06;100.00;96242.63;1022707;28;20078;-69
2022/11/06 01:54:59;;;;;;;43.63;16.10;;;;;;;2.02;100.00;96239.63;1026289;28;20054;-71
2022/11/06 01:55:34;;;;;;;41.20;15.10;;;;;;;2.01;100.00;96248.41;1026682;28;20285;-70
2022/11/06 01:56:07;;;;;;;35.45;15.05;;;;;;;1.89;100.00;96230.03;1026393;28;20278;-72
2022/11/06 01:56:37;;;;;;;43.80;15.00;;;;;;;1.94;100.00;96234.63;1019117;29;20282;-70
2022/11/06 01:57:08;;;;;;;45.60;15.25;;;;;;;1.93;100.00;96232.25;1022497;29;20313;-71
2022/11/06 01:57:38;;;;;;;36.03;14.90;;;;;;;1.90;100.00;96233.44;1022577;29;20043;-70
2022/11/06 01:58:12;;;;;;;30.52;14.27;;;;;;;1.84;100.00;96229.03;1026486;28;20022;-70
2022/11/06 01:58:43;;;;;;;31.58;14.27;;;;;;;1.83;100.00;96222.28;1018559;29;20036;-71
2022/11/06 01:59:14;;;;;;;35.47;15.25;;;;;;;1.81;100.00;96229.41;1022623;29;20330;-71
2022/11/06 01:59:45;;;;;;;30.83;14.65;;;;;;;1.80;100.00;96233.00;1030526;28;20428;-70
2022/11/06 02:00:16;;;;;;;40.97;16.95;;;;;;;1.76;100.00;96232.59;1026276;28;20309;-70
2022/11/06 02:00:47;;;;;;;36.65;14.88;;;;;;;1.67;100.00;96223.41;1014729;29;20059;-70
2022/11/06 02:01:17;;;;;;;37.00;15.80;;;;;;;1.62;100.00;96223.22;1022578;29;20287;-70
2022/11/06 02:01:48;;;;;;;35.50;14.57;;;;;;;1.62;100.00;96221.41;1026319;28;20077;-71
2022/11/06 02:02:18;;;;;;;36.28;14.65;;;;;;;1.69;100.00;96233.56;1033748;28;20026;-68
2022/11/06 02:02:49;;;;;;;41.70;15.30;;;;;;;1.64;100.00;96234.97;1034531;28;20018;-70
2022/11/06 02:03:19;;;;;;;32.42;13.85;;;;;;;1.57;100.00;96228.16;1026487;28;20500;-69
2022/11/06 02:04:04;;;;;;;29.20;13.65;;;;;;;1.59;100.00;96232.16;1026677;28;20428;-70
2022/11/06 02:04:36;;;;;;;32.60;14.18;;;;;;;1.59;100.00;96236.53;1030632;28;20140;-70
2022/11/06 02:05:07;;;;;;;34.92;15.02;;;;;;;1.58;100.00;96233.16;1030725;28;20313;-71
2022/11/06 02:05:38;;;;;;;30.73;14.30;;;;;;;1.54;100.00;96234.53;1023151;29;20278;-71
2022/11/06 02:06:09;;;;;;;29.80;13.38;;;;;;;1.55;100.00;96230.94;1022275;29;20114;-70
2022/11/06 02:06:39;;;;;;;34.03;13.82;;;;;;;1.52;100.00;96233.91;1030594;28;20273;-71
2022/11/06 02:07:10;;;;;;;33.17;14.07;;;;;;;1.50;100.00;96228.13;1022519;29;20139;-70
2022/11/06 02:07:41;;;;;;;34.20;14.20;;;;;;;1.50;100.00;96228.13;1018601;29;20023;-70
2022/11/06 02:08:13;;;;;;;34.30;14.65;;;;;;;1.44;100.00;96234.06;1026599;28;20262;-71
2022/11/06 02:08:43;;;;;;;34.78;15.30;;;;;;;1.45;100.00;96235.69;1022245;29;20894;-70
2022/11/06 02:09:14;;;;;;;36.92;15.15;;;;;;;1.43;100.00;96235.06;1026620;28;20274;-69
2022/11/06 02:09:45;;;;;;;34.08;14.05;;;;;;;1.35;100.00;96224.91;1022332;29;20030;-72
2022/11/06 02:10:15;;;;;;;27.58;13.07;;;;;;;1.38;100.00;96227.91;1023400;28;20043;-72
2022/11/06 02:10:46;;;;;;;29.75;14.68;;;;;;;1.37;100.00;96228.84;1022274;28;20027;-73
2022/11/06 02:11:16;;;;;;;34.28;13.57;;;;;;;1.36;100.00;96229.06;1022815;29;20458;-71
2022/11/06 02:12:09;;;;;;;28.35;14.13;;;;;;;1.34;100.00;96229.28;1030592;28;20111;-71
2022/11/06 02:12:44;;;;;;;30.23;13.88;;;;;;;1.32;100.00;96220.91;1025989;28;20030;-72
2022/11/06 02:13:24;;;;;;;27.98;13.02;;;;;;;1.31;100.00;96226.28;1030539;28;20874;-69
2022/11/06 02:14:01;;;;;;;28.75;13.48;;;;;;;1.20;100.00;96208.72;1030609;28;20305;-71
2022/11/06 02:15:10;;;;;;;32.03;12.88;;;;;;;1.29;100.00;96225.66;1026538;28;20031;-71
2022/11/06 02:16:11;;;;;;;30.38;11.60;;;;;;;1.22;100.00;96217.06;1019928;29;20317;-72
2022/11/06 02:16:51;;;;;;;;;;;;;;;1.19;100.00;96220.84;1018876;29;20024;-70
2022/11/06 02:17:43;;;;;;;32.47;12.23;;;;;;;1.00;100.00;96193.91;1022079;29;19914;-71
2022/11/06 02:18:17;;;;;;;34.30;11.96;;;;;;;1.08;100.00;96206.69;1025011;28;20157;-71
2022/11/06 02:18:47;;;;;;;29.66;12.60;;;;;;;1.11;100.00;96219.22;1035306;28;20575;-70
2022/11/06 02:19:50;;;;;;;35.60;14.30;;;;;;;1.03;100.00;96216.78;1035474;28;20113;-72
2022/11/06 02:20:45;;;;;;;34.54;14.28;;;;;;;1.06;100.00;96218.97;1034457;28;20145;-70
2022/11/06 02:21:37;;;;;;;28.32;12.86;;;;;;;1.02;100.00;96215.19;1038753;28;20053;-70
2022/11/06 02:22:17;;;;;;;28.80;11.76;;;;;;;0.99;100.00;96223.31;1034450;28;20010;-71
2022/11/06 02:23:02;;;;;;;28.88;13.94;;;;;;;0.97;100.00;96222.69;1034448;28;20089;-73
2022/11/06 02:23:44;;;;;;;27.16;12.82;;;;;;;0.95;100.00;96219.53;1030539;28;20033;-70
2022/11/06 02:24:39;;;;;;;30.20;13.66;;;;;;;0.92;100.00;96223.28;1038150;28;20468;-71
2022/11/06 02:25:31;;;;;;;31.94;13.08;;;;;;;0.93;100.00;96218.91;1037790;28;20021;-70
2022/11/06 02:26:17;;;;;;;40.98;14.10;;;;;;;0.93;100.00;96218.91;1038192;28;20036;-70
2022/11/06 02:27:06;;;;;;;48.52;15.52;;;;;;;0.92;100.00;96217.31;1035549;28;20031;-69
2022/11/06 02:27:36;;;;;;;39.88;14.40;;;;;;;0.90;100.00;96220.06;1033932;28;20025;-70
2022/11/06 02:28:25;;;;;;;39.45;14.98;;;;;;;0.89;100.00;96222.84;1034736;28;20045;-69
2022/11/06 02:29:07;;;;;;;54.40;16.00;;;;;;;0.85;100.00;96209.53;1030623;28;20620;-70
2022/11/06 02:29:59;;;;;;;46.82;15.40;;;;;;;0.84;100.00;96207.09;1026206;28;20034;-71
2022/11/06 02:30:31;;;;;;;58.14;16.32;;;;;;;0.84;100.00;96207.09;1026379;28;20448;-71
2022/11/06 02:31:03;;;;;;;74.66;16.70;;;;;;;0.80;100.00;96200.72;1018109;29;20039;-72
2022/11/06 02:31:34;;;;;;;66.86;18.12;;;;;;;0.81;100.00;96199.78;1022612;29;20023;-71
2022/11/06 02:32:07;;;;;;;73.53;17.90;;;;;;;0.82;100.00;96209.09;1026736;28;20034;-71
2022/11/06 02:32:43;;;;;;;60.72;18.56;;;;;;;0.81;100.00;96207.50;1032515;28;20030;-71